Flight Track Log - Related Links

Times and Time Zones

All times are in EDT time to prevent confusion due to time zone crossing. See the GJS3706 flight status page for this flight to view local times or setup timezone preferences in your user account.

Time Position Orientation Groundspeed Altitude Reporting Facility
EDT Latitude Longitude Course Direction KTS MPH feet Rate Location/Type
Tue 11:38:00 AM 42.7714 -73.8092 276° West 156 180 1,100  Level Boston Center
Tue 11:38:43 AM 42.8108 -73.8325 337° Northwest 209 241 2,200 2,171 Climbing Boston Center
Tue 11:40:32 AM 42.9072 -73.9425 320° Northwest 289 333 6,600 2,379 Climbing Boston Center
Tue 11:41:00 AM 43.0099 -74.0886 279° West  Level FlightAware Approximate
Tue 11:41:32 AM 42.9606 -74.0061 319° Northwest 289 333 8,900  Level Boston Center
Tue 11:42:00 AM 43.0214 -74.2157 276° West  Level FlightAware Approximate
Tue 11:42:32 AM 43.0261 -74.0931 316° Northwest 294 338 11,200  Level Boston Center
Tue 11:43:00 AM 43.0305 -74.3432 276° West  Level FlightAware Approximate
Tue 11:43:32 AM 43.0978 -74.1831 317° Northwest 329 379 12,900  Level Boston Center
Tue 11:44:32 AM 43.1608 -74.2817 311° West 342 394 14,700 1,900 Climbing Boston Center
Tue 11:45:32 AM 43.1689 -74.4186 275° West 336 387 16,700 1,750 Climbing Boston Center
Tue 11:46:32 AM 43.1814 -74.5386 278° West 344 396 18,200 1,500 Climbing Boston Center
Tue 11:47:44 AM 43.1956 -74.6703 278° West 355 409 20,000 1,636 Climbing Boston Center
Tue 11:48:44 AM 43.2067 -74.8386 275° West 360 414 21,800 1,550 Climbing Boston Center
Tue 11:49:44 AM 43.2056 -74.9839 269° West 373 429 23,100 1,300 Climbing Boston Center
Tue 11:50:44 AM 43.2042 -75.1406 269° West 379 436 24,400 1,100 Climbing Boston Center
Tue 11:51:44 AM 43.2047 -75.2944 270° West 391 450 25,300 950 Climbing Boston Center
Tue 11:52:44 AM 43.2050 -75.4453 270° West 402 463 26,300 950 Climbing Boston Center
Tue 11:53:44 AM 43.2047 -75.6022 270° West 407 468 27,200 950 Climbing Boston Center
Tue 11:54:44 AM 43.2067 -75.7589 271° West 407 468 28,200 1,050 Climbing Boston Center
Tue 11:55:44 AM 43.2522 -75.9039 293° West 407 468 29,300 903 Climbing Boston Center
Tue 11:59:43 AM 43.2783 -76.5081 274° West 408 470 32,700 883 Climbing Cleveland Center
Tue 12:00:43 PM 43.2711 -76.6597 266° West 413 475 33,700 1,000 Climbing Cleveland Center
Tue 12:01:43 PM 43.2700 -76.8108 269° West 408 470 34,700 1,000 Climbing Cleveland Center
Tue 12:02:43 PM 43.2644 -76.9653 267° West 408 470 35,700 1,000 Climbing Cleveland Center
Tue 12:03:43 PM 43.2564 -77.1081 266° West 398 458 36,700 1,000 Climbing Cleveland Center
Tue 12:04:43 PM 43.2500 -77.2511 267° West 392 451 37,700 650 Climbing Cleveland Center
Tue 12:05:43 PM 43.2478 -77.3939 269° West 385 443 38,000 150 Climbing Cleveland Center
Tue 12:06:43 PM 43.2414 -77.5367 267° West 385 443 38,000  Level Cleveland Center
Tue 12:07:43 PM 43.2344 -77.6767 266° West 385 443 38,000  Level Cleveland Center
Tue 12:08:43 PM 43.2297 -77.8250 268° West 385 443 38,000  Level Cleveland Center
Tue 12:09:43 PM 43.2247 -77.9678 267° West 385 443 38,000  Level Cleveland Center
Tue 12:10:43 PM 43.2153 -78.1078 265° West 385 443 38,000  Level Cleveland Center
Tue 12:11:43 PM 43.2100 -78.2503 267° West 385 443 38,000  Level Cleveland Center
Tue 12:12:43 PM 43.2044 -78.3958 267° West 385 443 38,000  Level Cleveland Center
Tue 12:13:43 PM 43.1967 -78.5358 266° West 385 443 38,000  Level Cleveland Center
Tue 12:14:43 PM 43.1906 -78.6783 267° West 385 443 38,000  Level Cleveland Center
Tue 12:15:43 PM 43.1825 -78.8153 265° West 379 436 38,000  Level Cleveland Center
Tue 12:16:43 PM 43.1761 -78.9547 266° West 379 436 38,000  Level Cleveland Center
Tue 12:17:43 PM 43.1675 -79.0917 265° West 369 425 38,000  Level Cleveland Center
Tue 12:18:40 PM 43.1500 -79.2000 258° West 360 414 38,000  Level Toronto Center
Tue 12:19:41 PM 43.1500 -79.3333 270° West 360 414 38,000  Level Toronto Center
Tue 12:20:40 PM 43.1333 -79.4667 260° West 370 426 38,000  Level Toronto Center
Tue 12:21:40 PM 43.1333 -79.6167 270° West 360 414 38,000  Level Toronto Center
Tue 12:22:40 PM 43.1167 -79.7500 260° West 360 414 38,000  Level Toronto Center
Tue 12:23:40 PM 43.1167 -79.9000 270° West 360 414 38,000  Level Toronto Center
Tue 12:24:40 PM 43.1000 -80.0167 259° West 360 414 38,000  Level Toronto Center
Tue 12:25:40 PM 43.1167 -80.1667 279° West 380 437 38,000  Level Toronto Center
Tue 12:26:40 PM 43.2167 -80.3000 316° Northwest 430 495 38,000  Level Toronto Center
Tue 12:27:40 PM 43.3167 -80.3833 329° Northwest 450 518 38,000  Level Toronto Center
Tue 12:28:40 PM 43.3833 -80.5333 301° West 430 495 38,000  Level Toronto Center
Tue 12:29:40 PM 43.3833 -80.6667 270° West 390 449 38,000  Level Toronto Center
Tue 12:30:40 PM 43.3667 -80.8000 260° West 370 426 38,000  Level Toronto Center
Tue 12:31:40 PM 43.3333 -80.9667 255° West 370 426 38,000  Level Toronto Center
Tue 12:32:40 PM 43.3167 -81.1000 260° West 380 437 38,000  Level Toronto Center
Tue 12:33:40 PM 43.3000 -81.2333 260° West 380 437 38,000  Level Toronto Center
Tue 12:34:40 PM 43.2833 -81.3667 260° West 380 437 38,000  Level Toronto Center
Tue 12:35:40 PM 43.2667 -81.5167 261° West 380 437 38,000  Level Toronto Center
Tue 12:36:40 PM 43.2500 -81.6667 261° West 380 437 38,000  Level Toronto Center
Tue 12:37:40 PM 43.2333 -81.8000 260° West 380 437 38,000  Level Toronto Center
Tue 12:38:40 PM 43.2000 -81.9500 253° West 380 437 38,000  Level Toronto Center
Tue 12:39:40 PM 43.1833 -82.1000 261° West 380 437 38,000  Level Toronto Center
Tue 12:40:40 PM 43.1667 -82.2333 260° West 380 437 38,000  Level Toronto Center
Tue 12:41:40 PM 43.1500 -82.3833 261° West 380 437 38,000  Level Toronto Center
Tue 12:42:40 PM 43.1333 -82.5333 261° West 380 437 38,000  Level Toronto Center
Tue 12:43:31 PM 43.1292 -82.6597 267° West 389 448 38,000 -162 Level Cleveland Center
Tue 12:44:31 PM 43.1078 -82.8042 259° West 389 448 37,700 -650 Descending Cleveland Center
Tue 12:45:31 PM 43.0861 -82.9456 258° West 389 448 36,700 -1,000 Descending Cleveland Center
Tue 12:46:31 PM 43.0644 -83.0897 258° West 389 448 35,700 -1,000 Descending Cleveland Center
Tue 12:47:31 PM 43.0425 -83.2336 258° West 389 448 34,700 -1,000 Descending Cleveland Center
Tue 12:48:31 PM 43.0200 -83.3861 259° West 394 453 33,700 -1,000 Descending Cleveland Center
Tue 12:49:31 PM 42.9975 -83.5439 259° West 407 468 32,700 -850 Descending Cleveland Center
Tue 12:50:31 PM 42.9744 -83.7019 259° West 420 483 32,000 -350 Descending Cleveland Center
Tue 12:51:31 PM 42.9533 -83.8597 260° West 425 489 32,000  Level Cleveland Center
Tue 12:52:31 PM 42.9383 -84.0206 263° West 425 489 32,000  Level Cleveland Center
Tue 12:54:11 PM 42.9153 -84.2789 263° West 432 497 32,000  Level Chicago Center
Tue 12:55:13 PM 42.8997 -84.4406 263° West 432 497 32,000  Level Chicago Center
Tue 12:56:15 PM 42.8833 -84.6047 262° West 437 503 32,000  Level Chicago Center
Tue 12:57:17 PM 42.8664 -84.7675 262° West 436 502 32,000  Level Chicago Center
Tue 12:58:19 PM 42.8481 -84.9306 261° West 436 502 32,000  Level Chicago Center
Tue 12:59:20 PM 42.8275 -85.1275 262° West 437 503 32,000 -341 Level Chicago Center
Tue 01:00:22 PM 42.8097 -85.2900 262° West 435 501 31,300 -919 Descending Chicago Center
Tue 01:01:24 PM 42.7922 -85.4511 262° West 433 498 30,100 -1,113 Descending Chicago Center
Tue 01:02:26 PM 42.7667 -85.6097 258° West 429 494 29,000 -1,016 Descending Chicago Center
Tue 01:03:28 PM 42.7369 -85.7719 256° West 434 499 28,000 -823 Descending Chicago Center
Tue 01:04:30 PM 42.7075 -85.9311 256° West 433 498 27,300 -1,306 Descending Chicago Center
Tue 01:05:32 PM 42.6786 -86.0903 256° West 430 495 25,300 -2,032 Descending Chicago Center
Tue 01:06:34 PM 42.6489 -86.2525 256° West 438 504 23,100 -2,081 Descending Chicago Center
Tue 01:07:36 PM 42.6192 -86.4083 256° West 428 493 21,000 -2,195 Descending Chicago Center
Tue 01:08:37 PM 42.5861 -86.5850 256° West 405 466 18,600 -2,098 Descending Chicago Center
Tue 01:09:39 PM 42.5614 -86.7264 257° West 394 453 16,700 -1,887 Descending Chicago Center
Tue 01:10:41 PM 42.5236 -86.8661 250° West 389 448 14,700 -1,887 Descending Chicago Center
Tue 01:11:43 PM 42.4878 -86.9978 250° West 375 432 12,800 -1,694 Descending Chicago Center
Tue 01:12:45 PM 42.4517 -87.1256 249° West 363 418 11,200 -1,355 Descending Chicago Center
Tue 01:13:47 PM 42.4161 -87.2508 249° West 359 413 10,000 -629 Descending Chicago Center
Tue 01:14:49 PM 42.3781 -87.3953 250° West 356 410 9,900 -48 Descending Chicago Center
Tue 01:15:51 PM 42.3422 -87.5181 248° West 355 409 9,900 -48 Level Chicago Center
Tue 01:16:53 PM 42.2728 -87.6028 222° Southwest 338 389 9,800 -677 Descending Chicago Center
Tue 01:17:55 PM 42.2094 -87.6706 218° Southwest 297 342 8,500 -1,355 Descending Chicago Center
Tue 01:18:57 PM 42.1369 -87.7483 219° Southwest 278 320 7,000 -726 Descending Chicago Center
Tue 01:19:59 PM 42.0928 -87.8325 235° Southwest 290 334 7,000 65 Level Chicago Center
Tue 01:20:29 PM 42.1000 -87.9000 278° West 292 336 7,100 71 Climbing Chicago TRACON
Tue 01:21:23 PM 42.0833 -87.9833 255° West 291 335 7,100 -105 Level Chicago TRACON
Tue 01:22:23 PM 42.0667 -88.0833 257° West 265 305 6,900 -471 Descending Chicago TRACON
Tue 01:23:05 PM 42.0556 -88.1333 253° West 266 306 6,300 -1,038 Descending Chicago Center
Tue 01:24:07 PM 42.0514 -88.2344 267° West 241 277 5,100 -1,065 Descending Chicago Center
Tue 01:25:09 PM 42.0214 -88.2772 227° Southwest 209 241 4,100 -532 Descending Chicago Center
Tue 01:26:11 PM 41.9831 -88.2442 147° Southeast 194 223 4,000 -48 Descending Chicago Center
Tue 01:27:13 PM 41.9653 -88.1839 112° Southeast 184 212 4,000  Level Chicago Center

Login

Don't have an account? Register now (free) for customized features, flight alerts, and more!